AirNav   Air Wisconsin Up To $57,000 Bonus
 
 717 users online  

7NE5 Lierley Farms Airport
Paxton, Nebraska, USA

GOING TO PAXTON?


FAA INFORMATION EFFECTIVE 02 DECEMBER 2021

Location

FAA Identifier: 7NE5
Lat/Long: 41-03-59.9800N 101-22-03.5910W
41-03.999667N 101-22.059850W
41.0666611,-101.3676642
(estimated)
Elevation: 3220 ft. / 981 m (estimated)
Variation: 09E (1985)
From city: 3 miles SW of PAXTON, NE
Time zone: UTC -7 (UTC -6 during Daylight Saving Time)
Zip code: 69155

Airport Operations

Airport use: Private use. Permission required prior to landing
Activation date: 10/1977
Control tower: no
ARTCC: DENVER CENTER
FSS: COLUMBUS FLIGHT SERVICE STATION
Attendance: UNATNDD
Wind indicator: yes
Segmented circle: no

Airport Communications

WX AWOS-3 at OGA (18 nm W): 121.275 (308-284-6573)

Nearby radio navigation aids

VOR radial/distance  VOR name  Freq  Var
SAEr093/18.7SEARLE VOR/DME110.2007E
LBFr261/28.1NORTH PLATTE VOR/DME117.4011E

 
NDB name  Hdg/Dist  Freq  Var  ID
GRANT045/20.235909EGGF --. --. ..-.

Airport Services

Runway Information

Runway N/S

Dimensions: 3000 x 40 ft. / 914 x 12 m
Surface: turf
RUNWAY N  RUNWAY S
Traffic pattern: leftleft
Obstructions: 30 ft. plinenone

Airport Ownership and Management from official FAA records

Ownership: Privately-owned
Owner: FRED LIERLEY
1995 RD E 50
PAXTON, NE 69155
Phone 308-239-4524
Manager: FRED LIERLEY
1995 RD E 50
PAXTON, NE 69155
Phone 308-239-4524

Airport Operational Statistics

Aircraft based on the field: 1
Single engine airplanes: 1
    

Additional Remarks

RWY SLOPES DOWN 20' TO THE NORTH.
FOR CD CTC DENVER ARTCC AT 303-651-4257.

Instrument Procedures

There are no published instrument procedures at 7NE5.

Some nearby airports with instrument procedures:

KOGA - Searle Field Airport (18 nm W)
KGGF - Grant Municipal Airport (20 nm SW)
KLBF - North Platte Regional Airport/Lee Bird Field (31 nm E)
KIML - Imperial Municipal Airport (35 nm S)
47V - Curtis Municipal Airport (48 nm SE)
 
Loc | Ops | Rwys | IFR | FBO | Links
Com | Nav | Svcs | Stats | Notes

AirBoss

 
Area around 7NE5 (Lierley Farms Airport)
 
Road maps at: MapQuest Bing Google
 
Aerial photo
No photo
 
Sectional chart

 
Airport distance calculator
Flying to Lierley Farms Airport? Find the distance to fly.

From to 7NE5

Sunrise and sunset
Times for 06-Dec-2021
 Local
(UTC-7)
 Zulu
(UTC)
Morning civil twilight06:2613:26
Sunrise06:5713:57
Sunset16:1623:16
Evening civil twilight16:4723:47

Current date and time
Zulu (UTC)  07-Dec-2021 05:15:54
Local (UTC-7)  06-Dec-2021 22:15:54
 
METAR
KOGA 
19nm W 
070455Z AUTO 19016G23KT 10SM SCT090 00/M13 A2986 RMK AO2 T00031131
KLBF 
32nm E 
070453Z AUTO 18013KT 10SM FEW120 M01/M12 A2993 RMK AO2 SLP165 T10111117 TSNO
KIML 
35nm S 
070453Z AUTO 17014KT 10SM SCT100 M01/M14 A2990 RMK AO2 SLP153 T10111139
TAF
KLBF 
32nm E 
070258Z 0703/0724 17013G20KT P6SM BKN200 FM070500 17013KT P6SM OVC200 WS020/21040KT FM071100 21006KT P6SM BKN250 FM071400 32009KT P6SM SCT250
NOTAMs
Click for the latest NOTAMs
NOTAMs are issued by the DoD/FAA and will open in a separate window not controlled by AirNav.

 

 
 

Would you like to see your business listed on this page?

 If your business provides an interesting product or service to pilots, flight crews, aircraft, or users of the Lierley Farms Airport, you should consider listing it here.  To start the listing process, click on the button below
 
Add a business
 

Other Pages about Lierley Farms Airport

Update a link
 
Copyright © AirNav, LLC. All rights reserved. Privacy Policy  Contact